Airfield :
LOGIN :

Register | Disclaimer

   EN    FR    IT 

 










Legend :    VFR   Marginal VFR   IFR   Intensive IFR   Very Intensive IFR
Visi :
Ceiling :
>= 8 km
>= 3000ft
5 to 8 km
1000 to 3000 ft
1500m to 5 km
500 to 1000 ft
800 to 1500m
200 to 500 ft
< 800m
< 200 ft
Symbols :   Thunderstorms  Fog  Heavy snow  Heavy precipitations  Wind > 20 kt
SIGMETs :     Misc.  Thunderstorms  Icing  Turbulence  Mountain Waves  Volcanic Ashes







- Airport Elevation : 138 ft
- IATA code : RLG


ETNL - Rostock Laage

CURRENT METAR :
  • 260220Z 29002KT 0800 R28/1700U BCFG 01/01 Q1025 AMB

EXPIRED METARs :
  • 260141Z 29003KT 0800 R28/0650U FG 01/00 Q1025 AMB
  • 260120Z 29003KT 0600 R28/0250N FG 02/01 Q1025 RED

TAF TAF ETNL
Valid from the 26 at 00:00 until the 26 at 12:00 UTC


252300Z 2600/2612 31004KT 9999 NSW BKN280
BECMG 2601/2603 31003KT 3000 BR SCT001
TEMPO 2605/2608 34003KT 0400 FG VV001
BECMG 2608/2610 26005KT 5000 BR FEW006 SCT280 BY ETGL
No reported NOTAMs for that airfield.



MET'MAP, your aeronautical weather chart ! - Copyright ORBIFLY December 2007 - Disclaimer

ORBIFLY MET'MAP TEAM :

Programming & Development : Alexandra Zaïnal
Concept & Development : Baudouin d'Aumeries
Co-Development & Prog : Marc-Olivier Méhu
Technical & hardware support : Manuel Goepfert

Contact : metmap@orbifly.com




SOURCES & CREDITS :

   NOAA